LEAL/ALC METAR and TAF weather

Enter ICAO airport designator
Station Type Date Time Source
LEAL METAR 2018/12/15 02:00 UTC NOAA

LEAL 150200Z 28013G23KT 240V320 CAVOK 12/02 Q1023 NOSIG


Station Type Date Time Source
LEAL Decoded METAR 2018/12/15 02:00 UTC NOAA

Alicante / El Altet, Spain (LEAL) 38-17N 000-33W 31M
Dec 14, 2018 - 09:00 PM EST / 2018.12.15 0200 UTC
Wind: from the W (280 degrees) at 15 MPH (13 KT) gusting to 26 MPH (23 KT) (direction variable):0
Visibility: greater than 7 mile(s):0
Temperature: 53 F (12 C)
Dew Point: 35 F (2 C)
Relative Humidity: 50%
Pressure (altimeter): 30.21 in. Hg (1023 hPa)
ob: LEAL 150200Z 28013G23KT 240V320 CAVOK 12/02 Q1023 NOSIG
cycle: 2

Station Type Date Time Source
LEAL TAF 2018/12/14 18:28 UTC NOAA

TAF LEAL 141700Z 1418/1518 31013KT 9999 FEW050 TX20/1512Z TN08/1506Z
TEMPO 1418/1512 32016G26KT


Example: see airport list